createdAt,value
2019-06-26T00:00:36.308Z,8.38
2019-06-26T00:03:05.065Z,8.63
2019-06-26T00:05:33.579Z,8.10
2019-06-26T00:08:02.604Z,8.78
2019-06-26T00:10:31.621Z,8.63
2019-06-26T00:13:00.662Z,8.33
2019-06-26T00:15:29.709Z,9.28
2019-06-26T00:17:58.213Z,8.50
2019-06-26T00:20:27.241Z,8.50
2019-06-26T00:22:56.263Z,8.63
2019-06-26T00:25:25.289Z,7.87
2019-06-26T00:27:54.318Z,8.18
2019-06-26T00:30:23.338Z,8.03
2019-06-26T00:32:51.827Z,8.35
2019-06-26T00:35:20.871Z,8.58
2019-06-26T00:37:49.909Z,8.13
2019-06-26T00:40:19.003Z,8.60
2019-06-26T00:42:48.057Z,8.90
2019-06-26T00:45:17.181Z,8.73
2019-06-26T00:47:46.215Z,8.50
2019-06-26T00:50:16.271Z,9.08
2019-06-26T00:52:45.311Z,9.35
2019-06-26T00:55:14.675Z,9.00
2019-06-26T00:57:43.776Z,9.73
2019-06-26T01:00:13.333Z,9.63
2019-06-26T01:02:41.857Z,10.25
2019-06-26T01:05:12.088Z,9.98
2019-06-26T01:07:41.175Z,10.00
2019-06-26T01:10:11.827Z,9.23
2019-06-26T01:12:40.920Z,8.93
2019-06-26T01:15:10.422Z,9.55
2019-06-26T01:17:39.541Z,9.15
2019-06-26T01:20:08.615Z,9.85
2019-06-26T01:22:37.628Z,10.00
2019-06-26T01:25:06.887Z,9.25
2019-06-26T01:27:35.911Z,9.03
2019-06-26T01:30:05.973Z,9.18
2019-06-26T01:32:34.492Z,9.20
2019-06-26T01:35:03.504Z,8.63
2019-06-26T01:37:31.950Z,9.10
2019-06-26T01:40:00.387Z,8.55
2019-06-26T01:42:28.843Z,8.65
2019-06-26T01:44:57.286Z,8.88
2019-06-26T01:47:25.738Z,8.83
2019-06-26T01:49:54.188Z,8.33
2019-06-26T01:52:22.681Z,8.60
2019-06-26T01:54:51.104Z,8.60
2019-06-26T01:57:19.621Z,8.68
2019-06-26T01:59:48.127Z,8.93
2019-06-26T02:02:16.553Z,8.50
2019-06-26T02:04:44.987Z,8.38
2019-06-26T02:07:13.426Z,8.35
2019-06-26T02:09:41.859Z,8.63
2019-06-26T02:12:10.298Z,8.65
2019-06-26T02:14:38.747Z,9.15
2019-06-26T02:17:07.212Z,9.35
2019-06-26T02:19:35.646Z,9.48
2019-06-26T02:22:04.163Z,11.25
2019-06-26T02:24:32.631Z,12.63
2019-06-26T02:27:01.077Z,14.85
2019-06-26T02:29:29.534Z,14.05
2019-06-26T02:31:57.980Z,13.68
2019-06-26T02:34:26.455Z,12.40
2019-06-26T02:36:54.888Z,11.57
2019-06-26T02:39:23.331Z,12.05
2019-06-26T02:41:51.768Z,11.95
2019-06-26T02:44:20.239Z,11.30
2019-06-26T02:46:48.691Z,11.18
2019-06-26T02:49:17.146Z,10.63
2019-06-26T02:51:45.595Z,10.75
2019-06-26T02:54:14.051Z,10.72
2019-06-26T02:56:42.494Z,10.00
2019-06-26T02:59:10.952Z,9.63
2019-06-26T03:01:39.367Z,9.53
2019-06-26T03:04:07.858Z,9.70
2019-06-26T03:06:36.314Z,9.88
2019-06-26T03:09:06.605Z,9.43
2019-06-26T03:11:35.101Z,9.40
2019-06-26T03:14:03.721Z,9.80
2019-06-26T03:16:32.163Z,10.08
2019-06-26T03:19:00.604Z,9.28
2019-06-26T03:21:29.035Z,9.83
2019-06-26T03:23:57.518Z,9.63
2019-06-26T03:26:26.002Z,10.63
2019-06-26T03:28:54.505Z,10.45
2019-06-26T03:31:23.010Z,9.90
2019-06-26T03:33:51.544Z,10.10
2019-06-26T03:36:19.969Z,10.10
2019-06-26T03:38:48.419Z,10.32
2019-06-26T03:41:17.471Z,9.78
2019-06-26T03:43:46.492Z,10.55
2019-06-26T03:46:15.548Z,10.00
2019-06-26T03:48:44.571Z,10.20
2019-06-26T03:51:14.210Z,10.78
2019-06-26T03:53:43.513Z,10.75
2019-06-26T03:56:11.952Z,10.58
2019-06-26T03:58:40.982Z,9.88
2019-06-26T04:01:10.096Z,9.85
2019-06-26T04:03:39.188Z,10.20
2019-06-26T04:06:08.202Z,9.78
2019-06-26T04:08:37.230Z,9.33
2019-06-26T04:11:06.347Z,9.98
2019-06-26T04:13:34.786Z,9.05
2019-06-26T04:16:03.808Z,9.43
2019-06-26T04:18:32.811Z,9.03
2019-06-26T04:21:01.893Z,9.55
2019-06-26T04:23:31.782Z,10.13
2019-06-26T04:26:00.310Z,9.00
2019-06-26T04:28:29.939Z,9.48
2019-06-26T04:30:59.050Z,9.05
2019-06-26T04:33:28.121Z,9.50
2019-06-26T04:35:57.171Z,9.18
2019-06-26T04:38:26.266Z,8.83
2019-06-26T04:40:56.190Z,9.78
2019-06-26T04:43:25.521Z,9.43
2019-06-26T04:45:58.514Z,9.48
2019-06-26T04:48:25.824Z,9.80
2019-06-26T04:50:54.965Z,11.60
2019-06-26T04:53:26.073Z,10.90
2019-06-26T04:55:56.087Z,10.38
2019-06-26T04:58:26.268Z,10.00
2019-06-26T05:00:55.984Z,10.23
2019-06-26T05:03:26.156Z,10.05
2019-06-26T05:05:56.097Z,9.78
2019-06-26T05:08:25.707Z,9.85
2019-06-26T05:10:58.676Z,9.83
2019-06-26T05:13:28.290Z,10.30
2019-06-26T05:16:10.564Z,9.55
2019-06-26T05:18:27.673Z,9.98
2019-06-26T05:20:56.955Z,9.88
2019-06-26T05:23:26.238Z,9.25
2019-06-26T05:25:55.262Z,10.25
2019-06-26T05:28:24.341Z,10.08
2019-06-26T05:30:54.928Z,9.95
2019-06-26T05:33:23.404Z,9.70
2019-06-26T05:35:52.529Z,9.50
2019-06-26T05:38:23.864Z,10.15
2019-06-26T05:40:53.025Z,9.30
2019-06-26T05:43:23.236Z,10.03
2019-06-26T05:45:51.679Z,9.73
2019-06-26T05:48:22.473Z,9.05
2019-06-26T05:50:51.803Z,9.58
2019-06-26T05:53:20.891Z,10.32
2019-06-26T05:55:49.959Z,9.85
2019-06-26T05:58:18.398Z,9.98
2019-06-26T06:00:49.223Z,10.35
2019-06-26T06:03:18.247Z,9.83
2019-06-26T06:05:47.339Z,10.28
2019-06-26T06:08:16.446Z,9.98
2019-06-26T06:10:45.515Z,10.20
2019-06-26T06:13:13.972Z,9.83
2019-06-26T06:15:43.042Z,9.80
2019-06-26T06:18:12.108Z,9.85
2019-06-26T06:20:41.283Z,10.18
2019-06-26T06:23:10.292Z,9.60
2019-06-26T06:25:39.539Z,9.80
2019-06-26T06:28:07.995Z,10.53
2019-06-26T06:30:37.103Z,9.95
2019-06-26T06:33:06.186Z,9.75
2019-06-26T06:35:35.190Z,9.75
2019-06-26T06:38:04.696Z,9.70
2019-06-26T06:40:33.150Z,9.95
2019-06-26T06:43:02.184Z,10.25
2019-06-26T06:45:31.580Z,10.00
2019-06-26T06:48:00.666Z,10.50
2019-06-26T06:50:29.685Z,10.65
2019-06-26T06:53:05.145Z,9.68
2019-06-26T06:55:34.161Z,9.15
2019-06-26T06:58:03.432Z,10.32
2019-06-26T07:00:32.600Z,9.75
2019-06-26T07:03:01.642Z,10.05
2019-06-26T07:05:36.640Z,10.35
2019-06-26T07:08:06.103Z,10.08
2019-06-26T07:10:35.134Z,10.10
2019-06-26T07:13:04.159Z,10.28
2019-06-26T07:15:33.260Z,10.03
2019-06-26T07:18:02.293Z,9.78
2019-06-26T07:20:31.306Z,10.00
2019-06-26T07:22:59.763Z,10.90
2019-06-26T07:25:28.761Z,9.90
2019-06-26T07:28:01.625Z,10.82
2019-06-26T07:30:28.550Z,10.82
2019-06-26T07:32:57.564Z,9.98
2019-06-26T07:35:25.995Z,10.70
2019-06-26T07:37:55.034Z,10.32
2019-06-26T07:40:24.123Z,10.15
2019-06-26T07:42:53.137Z,10.00
2019-06-26T07:45:24.182Z,11.18
2019-06-26T07:47:52.924Z,10.70
2019-06-26T07:50:21.374Z,10.70
2019-06-26T07:52:50.411Z,11.03
2019-06-26T07:55:19.552Z,10.85
2019-06-26T07:57:48.563Z,9.60
2019-06-26T08:00:17.811Z,9.83
2019-06-26T08:02:46.268Z,9.68
2019-06-26T08:05:16.327Z,9.93
2019-06-26T08:07:45.371Z,9.68
2019-06-26T08:10:15.318Z,9.43
2019-06-26T08:12:44.333Z,9.13
2019-06-26T08:15:14.787Z,9.45
2019-06-26T08:17:59.055Z,9.13
2019-06-26T08:20:15.009Z,8.48
2019-06-26T08:22:44.020Z,9.80
2019-06-26T08:25:13.169Z,9.18
2019-06-26T08:27:42.189Z,9.15
2019-06-26T08:30:11.176Z,9.33
2019-06-26T08:32:40.275Z,9.40
2019-06-26T08:35:10.053Z,8.73
2019-06-26T08:37:39.080Z,9.00
2019-06-26T08:40:09.413Z,8.90
2019-06-26T08:42:38.440Z,9.23
2019-06-26T08:45:08.541Z,9.65
2019-06-26T08:47:38.432Z,8.90
2019-06-26T08:50:10.645Z,8.85
2019-06-26T08:52:39.686Z,8.70
2019-06-26T08:55:09.426Z,7.90
2019-06-26T08:57:37.871Z,8.00
2019-06-26T09:00:08.933Z,8.58
2019-06-26T09:02:38.163Z,8.30
2019-06-26T09:05:08.222Z,7.92
2019-06-26T09:07:37.231Z,7.90
2019-06-26T09:10:07.016Z,7.67
2019-06-26T09:12:36.031Z,7.35
2019-06-26T09:15:06.876Z,7.33
2019-06-26T09:17:36.625Z,6.92
2019-06-26T09:20:07.282Z,7.50
2019-06-26T09:22:36.366Z,6.90
2019-06-26T09:25:21.050Z,6.33
2019-06-26T09:27:38.623Z,6.30
2019-06-26T09:30:08.674Z,7.05
2019-06-26T09:32:37.684Z,6.33
2019-06-26T09:35:07.458Z,5.25
2019-06-26T09:37:35.963Z,5.28
2019-06-26T09:40:06.114Z,5.50
2019-06-26T09:42:35.121Z,5.15
2019-06-26T09:45:06.335Z,5.55
2019-06-26T09:47:35.387Z,6.20
2019-06-26T09:50:05.972Z,6.45
2019-06-26T09:52:34.969Z,6.70
2019-06-26T09:55:04.382Z,7.80
2019-06-26T09:57:33.417Z,7.85
2019-06-26T10:00:02.447Z,7.95
2019-06-26T10:02:31.473Z,7.35
2019-06-26T10:04:59.915Z,7.03
2019-06-26T10:07:28.927Z,6.58
2019-06-26T10:09:57.943Z,6.20
2019-06-26T10:12:26.942Z,6.08
2019-06-26T10:14:55.991Z,6.55
2019-06-26T10:17:25.022Z,5.55
2019-06-26T10:19:54.246Z,5.70
2019-06-26T10:22:23.549Z,5.80
2019-06-26T10:24:52.568Z,5.78
2019-06-26T10:27:21.571Z,5.80
2019-06-26T10:29:50.614Z,5.67
2019-06-26T10:32:19.248Z,4.97
2019-06-26T10:34:48.643Z,5.12
2019-06-26T10:37:17.663Z,5.35
2019-06-26T10:39:46.678Z,5.15
2019-06-26T10:42:15.682Z,5.33
2019-06-26T10:44:44.746Z,4.42
2019-06-26T10:47:13.239Z,5.15
2019-06-26T10:49:42.269Z,4.10
2019-06-26T10:52:11.321Z,4.55
2019-06-26T10:54:44.152Z,4.37
2019-06-26T10:57:11.189Z,4.78
2019-06-26T10:59:39.620Z,4.78
2019-06-26T11:02:09.189Z,4.67
2019-06-26T11:04:38.209Z,4.47
2019-06-26T11:07:07.248Z,4.47
2019-06-26T11:09:36.293Z,4.62
2019-06-26T11:12:05.367Z,4.45
2019-06-26T11:14:55.047Z,4.85
2019-06-26T11:17:24.096Z,4.85
2019-06-26T11:19:55.605Z,5.08
2019-06-26T11:22:23.845Z,5.05
2019-06-26T11:25:22.134Z,5.20
2019-06-26T11:27:50.571Z,6.10
2019-06-26T11:30:21.351Z,5.50
2019-06-26T11:33:04.364Z,5.97
2019-06-26T11:35:33.370Z,6.10
2019-06-26T11:38:02.402Z,5.80
2019-06-26T11:40:30.902Z,6.25
2019-06-26T11:43:00.557Z,6.37
2019-06-26T11:45:29.587Z,5.60
2019-06-26T11:47:58.580Z,5.28
2019-06-26T11:50:28.086Z,5.70
2019-06-26T11:52:57.076Z,5.60
2019-06-26T11:55:25.589Z,5.80
2019-06-26T11:57:54.579Z,5.92
2019-06-26T12:00:25.079Z,5.72
2019-06-26T12:02:54.089Z,6.10
2019-06-26T12:05:24.086Z,5.50
2019-06-26T12:07:52.510Z,5.30
2019-06-26T12:10:21.687Z,6.10
2019-06-26T12:12:50.751Z,4.65
2019-06-26T12:15:22.959Z,5.40
2019-06-26T12:17:52.098Z,5.17
2019-06-26T12:20:21.393Z,4.95
2019-06-26T12:22:49.884Z,5.25
2019-06-26T12:25:19.065Z,5.17
2019-06-26T12:27:48.082Z,5.05
2019-06-26T12:30:18.523Z,4.72
2019-06-26T12:33:02.261Z,5.45
2019-06-26T12:35:17.823Z,4.67
2019-06-26T12:37:46.894Z,4.95
2019-06-26T12:40:16.658Z,4.58
2019-06-26T12:42:45.686Z,4.58
2019-06-26T12:45:15.899Z,4.67
2019-06-26T12:47:44.930Z,5.00
2019-06-26T12:50:14.989Z,4.80
2019-06-26T12:52:44.028Z,4.47
2019-06-26T12:55:13.240Z,4.30
2019-06-26T12:57:42.268Z,4.92
2019-06-26T13:00:14.851Z,4.65
2019-06-26T13:02:46.313Z,4.35
2019-06-26T13:05:16.567Z,5.05
2019-06-26T13:07:45.738Z,4.17
2019-06-26T13:10:15.532Z,4.67
2019-06-26T13:12:47.929Z,4.45
2019-06-26T13:15:17.088Z,4.17
2019-06-26T13:17:47.750Z,4.60
2019-06-26T13:20:16.948Z,4.53
2019-06-26T13:22:46.078Z,4.75
2019-06-26T13:25:16.213Z,4.05
2019-06-26T13:27:45.685Z,4.70
2019-06-26T13:30:14.591Z,4.55
2019-06-26T13:32:43.609Z,4.75
2019-06-26T13:35:13.086Z,4.42
2019-06-26T13:37:42.189Z,4.03
2019-06-26T13:40:11.462Z,4.37
2019-06-26T13:42:40.884Z,5.42
2019-06-26T13:45:10.442Z,4.55
2019-06-26T13:47:38.879Z,4.22
2019-06-26T13:50:08.809Z,4.50
2019-06-26T13:52:38.015Z,4.55
2019-06-26T13:55:07.669Z,4.80
2019-06-26T13:57:36.964Z,4.55
2019-06-26T14:00:07.796Z,4.28
2019-06-26T14:02:43.124Z,4.35
2019-06-26T14:05:12.560Z,4.67
2019-06-26T14:07:42.698Z,4.42
2019-06-26T14:10:13.615Z,4.97
2019-06-26T14:12:42.125Z,3.87
2019-06-26T14:15:11.411Z,4.17
2019-06-26T14:17:40.475Z,4.20
2019-06-26T14:20:12.138Z,3.92
2019-06-26T14:22:41.202Z,4.42
2019-06-26T14:25:10.146Z,3.92
2019-06-26T14:27:39.247Z,4.10
2019-06-26T14:30:09.299Z,4.62
2019-06-26T14:32:38.338Z,4.62
2019-06-26T14:35:08.004Z,4.30
2019-06-26T14:37:37.104Z,4.00
2019-06-26T14:40:07.084Z,4.45
2019-06-26T14:42:36.220Z,4.42
2019-06-26T14:45:07.585Z,4.50
2019-06-26T14:47:36.638Z,4.35
2019-06-26T14:50:09.639Z,4.33
2019-06-26T14:52:38.093Z,4.05
2019-06-26T14:55:08.231Z,5.12
2019-06-26T14:57:37.262Z,4.50
2019-06-26T15:00:08.198Z,3.98
2019-06-26T15:02:37.216Z,4.83
2019-06-26T15:05:07.001Z,4.33
2019-06-26T15:07:36.084Z,4.90
2019-06-26T15:10:09.556Z,4.25
2019-06-26T15:12:38.641Z,4.40
2019-06-26T15:15:08.918Z,4.03
2019-06-26T15:17:37.915Z,4.33
2019-06-26T15:20:08.278Z,4.12
2019-06-26T15:22:37.284Z,4.65
2019-06-26T15:25:07.984Z,4.80
2019-06-26T15:27:37.113Z,4.90
2019-06-26T15:30:08.599Z,4.25
2019-06-26T15:32:37.027Z,3.75
2019-06-26T15:35:07.986Z,3.92
2019-06-26T15:37:37.323Z,4.35
2019-06-26T15:40:07.293Z,3.92
2019-06-26T15:42:36.391Z,4.55
2019-06-26T15:45:07.257Z,3.92
2019-06-26T15:47:35.713Z,4.28
2019-06-26T15:50:10.489Z,4.47
2019-06-26T15:52:38.220Z,4.60
2019-06-26T15:55:07.988Z,4.30
2019-06-26T15:57:37.098Z,4.65
2019-06-26T16:00:09.074Z,4.30
2019-06-26T16:02:38.116Z,4.85
2019-06-26T16:05:07.791Z,4.08
2019-06-26T16:07:36.804Z,3.92
2019-06-26T16:10:09.038Z,4.37
2019-06-26T16:12:37.468Z,4.17
2019-06-26T16:15:07.239Z,4.55
2019-06-26T16:17:42.802Z,3.65
2019-06-26T16:20:11.315Z,4.42
2019-06-26T16:22:40.338Z,4.20
2019-06-26T16:25:09.795Z,5.12
2019-06-26T16:27:38.805Z,4.12
2019-06-26T16:30:07.980Z,3.77
2019-06-26T16:32:36.985Z,3.90
2019-06-26T16:35:07.082Z,4.10
2019-06-26T16:37:36.099Z,3.35
2019-06-26T16:40:06.874Z,3.70
2019-06-26T16:42:35.965Z,3.47
2019-06-26T16:45:06.790Z,4.30
2019-06-26T16:47:36.604Z,4.40
2019-06-26T16:50:07.879Z,4.28
2019-06-26T16:52:48.753Z,3.75
2019-06-26T16:55:08.776Z,4.25
2019-06-26T16:57:37.789Z,4.15
2019-06-26T17:00:11.540Z,3.98
2019-06-26T17:02:39.990Z,4.25
2019-06-26T17:05:09.323Z,3.58
2019-06-26T17:07:41.202Z,3.87
2019-06-26T17:10:16.272Z,3.98
2019-06-26T17:12:46.066Z,4.55
2019-06-26T17:15:15.277Z,4.20
2019-06-26T17:17:47.172Z,3.72
2019-06-26T17:20:20.785Z,4.53
2019-06-26T17:23:05.063Z,3.95
2019-06-26T17:25:23.331Z,4.17
2019-06-26T17:28:02.624Z,4.10
2019-06-26T17:33:19.976Z,4.10
2019-06-26T17:35:49.356Z,3.72
2019-06-26T17:38:18.554Z,3.80
2019-06-26T17:40:47.793Z,4.25
2019-06-26T17:49:30.568Z,4.25
2019-06-26T17:52:01.532Z,4.47
2019-06-26T17:54:51.961Z,4.12
2019-06-26T17:57:14.003Z,4.15
2019-06-26T18:01:20.504Z,3.77
2019-06-26T18:02:15.913Z,4.30
2019-06-26T18:04:44.682Z,3.92
2019-06-26T18:07:13.966Z,4.30
2019-06-26T18:09:43.013Z,4.00
2019-06-26T18:12:12.064Z,4.70
2019-06-26T18:14:43.309Z,4.28
2019-06-26T18:17:21.944Z,4.47
2019-06-26T18:19:42.688Z,4.60
2019-06-26T18:22:11.722Z,4.95
2019-06-26T18:24:40.731Z,4.20
2019-06-26T18:27:09.746Z,4.40
2019-06-26T18:29:38.775Z,4.50
2019-06-26T18:32:07.210Z,5.20
2019-06-26T18:34:36.211Z,4.80
2019-06-26T18:37:05.231Z,4.55
2019-06-26T18:39:34.287Z,4.60
2019-06-26T18:42:03.330Z,4.50
2019-06-26T18:44:32.388Z,4.58
2019-06-26T18:47:00.854Z,4.67
2019-06-26T18:49:29.951Z,4.33
2019-06-26T18:51:58.980Z,4.75
2019-06-26T18:54:27.979Z,4.33
2019-06-26T18:56:57.076Z,4.75
2019-06-26T18:59:26.154Z,5.45
2019-06-26T19:01:54.614Z,4.53
2019-06-26T19:04:23.673Z,4.92
2019-06-26T19:06:52.762Z,4.85
2019-06-26T19:09:21.785Z,5.00
2019-06-26T19:11:50.812Z,4.83
2019-06-26T19:14:19.243Z,5.37
2019-06-26T19:16:48.301Z,4.78
2019-06-26T19:19:17.373Z,4.92
2019-06-26T19:21:46.388Z,4.60
2019-06-26T19:24:15.389Z,5.12
2019-06-26T19:26:44.426Z,5.95
2019-06-26T19:29:12.861Z,5.20
2019-06-26T19:31:41.895Z,5.40
2019-06-26T19:34:10.905Z,5.28
2019-06-26T19:36:49.494Z,5.17
2019-06-26T19:39:10.079Z,5.00
2019-06-26T19:41:39.107Z,5.25
2019-06-26T19:44:09.109Z,5.72
2019-06-26T19:46:41.014Z,5.53
2019-06-26T19:49:09.165Z,4.58
2019-06-26T19:51:37.622Z,5.17
2019-06-26T19:54:06.663Z,5.30
2019-06-26T19:56:35.667Z,5.83
2019-06-26T19:59:04.685Z,5.70
2019-06-26T20:01:33.702Z,5.83
2019-06-26T20:04:02.725Z,5.45
2019-06-26T20:06:31.144Z,6.25
2019-06-26T20:09:00.191Z,4.97
2019-06-26T20:11:29.267Z,5.10
2019-06-26T20:13:58.296Z,5.80
2019-06-26T20:16:27.303Z,5.80
2019-06-26T20:18:56.334Z,6.37
2019-06-26T20:21:24.759Z,6.28
2019-06-26T20:23:53.780Z,6.03
2019-06-26T20:26:24.710Z,5.20
2019-06-26T20:28:53.725Z,5.92
2019-06-26T20:31:22.728Z,5.40
2019-06-26T20:33:51.443Z,6.25
2019-06-26T20:36:20.459Z,5.87
2019-06-26T20:38:49.479Z,5.83
2019-06-26T20:41:18.482Z,6.37
2019-06-26T20:43:47.516Z,6.08
2019-06-26T20:46:18.050Z,6.62
2019-06-26T20:48:46.603Z,5.90
2019-06-26T20:51:15.623Z,6.40
2019-06-26T20:53:44.647Z,5.67
2019-06-26T20:56:13.662Z,6.50
2019-06-26T20:58:43.450Z,6.05
2019-06-26T21:01:11.904Z,6.97
2019-06-26T21:03:40.987Z,6.37
2019-06-26T21:06:10.021Z,6.37
2019-06-26T21:08:39.027Z,6.42
2019-06-26T21:11:08.041Z,7.67
2019-06-26T21:13:37.350Z,6.60
2019-06-26T21:16:05.856Z,6.80
2019-06-26T21:18:34.877Z,6.15
2019-06-26T21:21:03.959Z,6.28
2019-06-26T21:23:32.993Z,6.15
2019-06-26T21:26:02.023Z,6.58
2019-06-26T21:28:32.122Z,6.35
2019-06-26T21:31:02.562Z,6.40
2019-06-26T21:33:31.604Z,6.95
2019-06-26T21:36:01.953Z,6.90
2019-06-26T21:38:31.005Z,7.03
2019-06-26T21:40:59.492Z,6.85
2019-06-26T21:43:28.511Z,6.65
2019-06-26T21:45:58.296Z,6.55
2019-06-26T21:48:27.319Z,6.70
2019-06-26T21:50:56.347Z,6.90
2019-06-26T21:53:27.207Z,6.17
2019-06-26T21:55:56.223Z,6.55
2019-06-26T21:58:24.794Z,6.70
2019-06-26T22:00:53.363Z,6.97
2019-06-26T22:03:22.533Z,7.25
2019-06-26T22:05:51.550Z,6.53
2019-06-26T22:08:21.385Z,6.60
2019-06-26T22:10:50.471Z,7.25
2019-06-26T22:13:20.058Z,6.22
2019-06-26T22:15:49.068Z,6.60
2019-06-26T22:18:18.071Z,6.58
2019-06-26T22:20:46.506Z,6.62
2019-06-26T22:23:15.592Z,7.60
2019-06-26T22:25:50.863Z,6.67
2019-06-26T22:28:15.411Z,6.80
2019-06-26T22:30:44.849Z,7.03
2019-06-26T22:33:13.878Z,7.00
2019-06-26T22:35:43.667Z,6.97
2019-06-26T22:38:12.674Z,6.67
2019-06-26T22:40:41.776Z,7.53
2019-06-26T22:43:10.783Z,6.70
2019-06-26T22:45:39.804Z,6.87
2019-06-26T22:48:08.803Z,6.70
2019-06-26T22:50:37.835Z,6.87
2019-06-26T22:53:06.855Z,6.90
2019-06-26T22:55:35.888Z,7.55
2019-06-26T22:58:04.922Z,7.75
2019-06-26T23:00:33.932Z,7.42
2019-06-26T23:03:02.955Z,7.55
2019-06-26T23:05:32.162Z,8.28
2019-06-26T23:08:01.186Z,7.80
2019-06-26T23:10:29.892Z,7.28
2019-06-26T23:12:58.911Z,7.37
2019-06-26T23:15:27.932Z,7.50
2019-06-26T23:17:57.119Z,7.15
2019-06-26T23:20:26.140Z,6.85
2019-06-26T23:22:55.159Z,7.67
2019-06-26T23:25:24.196Z,7.75
2019-06-26T23:27:53.210Z,7.53
2019-06-26T23:30:22.385Z,7.53
2019-06-26T23:32:50.824Z,7.42
2019-06-26T23:35:19.848Z,7.42
2019-06-26T23:37:48.923Z,8.13
2019-06-26T23:40:18.119Z,7.97
2019-06-26T23:42:47.135Z,8.35
2019-06-26T23:45:16.224Z,8.28
2019-06-26T23:47:45.825Z,8.43
2019-06-26T23:50:14.855Z,8.90
2019-06-26T23:52:43.876Z,8.80
2019-06-26T23:55:12.927Z,8.78
2019-06-26T23:57:57.997Z,9.23
